sensor_id;sensor_type;location;lat;lon;timestamp;pressure;altitude;pressure_sealevel;temperature;humidity
48390;BME280;34643;47.964;7.982;2023-01-19T00:01:26;95655.44;;;15.88;60.68
48390;BME280;34643;47.964;7.982;2023-01-19T00:06:27;95656.38;;;15.87;60.81
48390;BME280;34643;47.964;7.982;2023-01-19T00:11:27;95665.13;;;15.86;60.81
48390;BME280;34643;47.964;7.982;2023-01-19T00:16:27;95665.00;;;15.88;60.44
48390;BME280;34643;47.964;7.982;2023-01-19T00:21:28;95670.06;;;15.89;60.55
48390;BME280;34643;47.964;7.982;2023-01-19T00:26:28;95670.19;;;15.88;60.16
48390;BME280;34643;47.964;7.982;2023-01-19T00:31:28;95676.09;;;15.90;60.45
48390;BME280;34643;47.964;7.982;2023-01-19T00:36:29;95671.88;;;15.89;60.43
48390;BME280;34643;47.964;7.982;2023-01-19T00:41:29;95680.63;;;15.88;60.25
48390;BME280;34643;47.964;7.982;2023-01-19T00:46:48;95677.19;;;15.87;60.24
48390;BME280;34643;47.964;7.982;2023-01-19T00:51:48;95681.72;;;15.85;60.32
48390;BME280;34643;47.964;7.982;2023-01-19T00:56:48;95684.75;;;15.90;60.37
48390;BME280;34643;47.964;7.982;2023-01-19T01:01:49;95685.56;;;15.91;60.03
48390;BME280;34643;47.964;7.982;2023-01-19T01:06:49;95695.03;;;15.92;59.83
48390;BME280;34643;47.964;7.982;2023-01-19T01:11:49;95697.75;;;15.90;59.87
48390;BME280;34643;47.964;7.982;2023-01-19T01:16:50;95697.88;;;15.89;59.85
48390;BME280;34643;47.964;7.982;2023-01-19T01:21:50;95700.63;;;15.87;59.91
48390;BME280;34643;47.964;7.982;2023-01-19T01:26:50;95702.28;;;15.88;59.70
48390;BME280;34643;47.964;7.982;2023-01-19T01:31:51;95708.16;;;15.90;59.76
48390;BME280;34643;47.964;7.982;2023-01-19T01:36:51;95711.03;;;15.87;59.71
48390;BME280;34643;47.964;7.982;2023-01-19T01:41:51;95724.84;;;15.88;59.81
48390;BME280;34643;47.964;7.982;2023-01-19T01:46:52;95725.13;;;15.85;59.79
48390;BME280;34643;47.964;7.982;2023-01-19T01:51:52;95723.47;;;15.84;59.86
48390;BME280;34643;47.964;7.982;2023-01-19T01:56:54;95730.34;;;15.85;59.89
48390;BME280;34643;47.964;7.982;2023-01-19T02:01:58;95735.66;;;15.83;60.02
48390;BME280;34643;47.964;7.982;2023-01-19T02:07:22;95731.16;;;15.85;59.92
48390;BME280;34643;47.964;7.982;2023-01-19T02:12:44;95736.34;;;15.85;60.14
48390;BME280;34643;47.964;7.982;2023-01-19T02:18:03;95734.69;;;15.84;59.99
48390;BME280;34643;47.964;7.982;2023-01-19T02:23:05;95741.94;;;15.81;59.76
48390;BME280;34643;47.964;7.982;2023-01-19T02:28:06;95740.19;;;15.81;59.69
48390;BME280;34643;47.964;7.982;2023-01-19T02:33:06;95733.19;;;15.82;59.79
48390;BME280;34643;47.964;7.982;2023-01-19T02:38:07;95740.03;;;15.83;59.62
48390;BME280;34643;47.964;7.982;2023-01-19T02:43:08;95736.59;;;15.82;59.70
48390;BME280;34643;47.964;7.982;2023-01-19T02:48:09;95747.97;;;15.81;59.42
48390;BME280;34643;47.964;7.982;2023-01-19T02:53:20;95745.22;;;15.83;59.56
48390;BME280;34643;47.964;7.982;2023-01-19T03:03:32;95738.41;;;15.82;59.38
48390;BME280;34643;47.964;7.982;2023-01-19T03:18:48;95725.38;;;15.82;59.42
48390;BME280;34643;47.964;7.982;2023-01-19T03:23:51;95731.41;;;15.82;59.48
48390;BME280;34643;47.964;7.982;2023-01-19T03:28:52;95732.09;;;15.84;59.29
48390;BME280;34643;47.964;7.982;2023-01-19T03:34:05;95728.44;;;15.87;59.42
48390;BME280;34643;47.964;7.982;2023-01-19T03:39:07;95734.00;;;15.82;59.25
48390;BME280;34643;47.964;7.982;2023-01-19T03:44:09;95734.81;;;15.83;59.15
48390;BME280;34643;47.964;7.982;2023-01-19T03:49:10;95730.34;;;15.85;59.06
48390;BME280;34643;47.964;7.982;2023-01-19T03:54:11;95741.44;;;15.87;58.92
48390;BME280;34643;47.964;7.982;2023-01-19T03:59:11;95733.06;;;15.83;59.13
48390;BME280;34643;47.964;7.982;2023-01-19T04:04:11;95742.50;;;15.84;59.12
48390;BME280;34643;47.964;7.982;2023-01-19T04:09:12;95743.34;;;15.85;59.04
48390;BME280;34643;47.964;7.982;2023-01-19T04:14:12;95746.88;;;15.84;58.88
48390;BME280;34643;47.964;7.982;2023-01-19T04:19:13;95747.00;;;15.82;58.93
48390;BME280;34643;47.964;7.982;2023-01-19T04:24:13;95744.28;;;15.84;58.91
48390;BME280;34643;47.964;7.982;2023-01-19T04:29:13;95746.19;;;15.82;58.99
48390;BME280;34643;47.964;7.982;2023-01-19T04:34:14;95753.88;;;15.83;59.06
48390;BME280;34643;47.964;7.982;2023-01-19T04:39:14;95749.81;;;15.90;58.94
48390;BME280;34643;47.964;7.982;2023-01-19T04:44:14;95752.84;;;15.95;59.06
48390;BME280;34643;47.964;7.982;2023-01-19T04:49:14;95759.69;;;15.96;59.00
48390;BME280;34643;47.964;7.982;2023-01-19T04:54:15;95765.69;;;15.97;59.26
48390;BME280;34643;47.964;7.982;2023-01-19T04:59:15;95765.44;;;16.00;59.20
48390;BME280;34643;47.964;7.982;2023-01-19T05:04:15;95763.53;;;16.02;59.41
48390;BME280;34643;47.964;7.982;2023-01-19T05:09:16;95770.41;;;16.03;59.43
48390;BME280;34643;47.964;7.982;2023-01-19T05:14:16;95773.69;;;16.05;59.70
48390;BME280;34643;47.964;7.982;2023-01-19T05:19:16;95773.56;;;16.07;59.80
48390;BME280;34643;47.964;7.982;2023-01-19T05:24:17;95764.41;;;16.12;60.17
48390;BME280;34643;47.964;7.982;2023-01-19T05:29:18;95781.97;;;16.20;60.67
48390;BME280;34643;47.964;7.982;2023-01-19T05:34:18;95765.75;;;16.07;53.60
48390;BME280;34643;47.964;7.982;2023-01-19T05:39:19;95783.72;;;12.50;45.61
48390;BME280;34643;47.964;7.982;2023-01-19T05:44:19;95790.44;;;11.64;43.52
48390;BME280;34643;47.964;7.982;2023-01-19T05:49:19;95797.75;;;14.02;51.96
48390;BME280;34643;47.964;7.982;2023-01-19T05:54:20;95805.22;;;14.95;50.46
48390;BME280;34643;47.964;7.982;2023-01-19T05:59:20;95809.13;;;15.22;50.48
48390;BME280;34643;47.964;7.982;2023-01-19T06:04:23;95810.69;;;15.25;51.20
48390;BME280;34643;47.964;7.982;2023-01-19T06:09:23;95806.63;;;15.32;51.78
48390;BME280;34643;47.964;7.982;2023-01-19T06:14:24;95820.56;;;15.31;52.46
48390;BME280;34643;47.964;7.982;2023-01-19T06:19:25;95823.97;;;15.31;52.96
48390;BME280;34643;47.964;7.982;2023-01-19T06:24:25;95823.97;;;15.31;53.34
48390;BME280;34643;47.964;7.982;2023-01-19T06:29:26;95831.34;;;15.26;53.73
48390;BME280;34643;47.964;7.982;2023-01-19T06:34:29;95832.41;;;15.24;54.00
48390;BME280;34643;47.964;7.982;2023-01-19T06:39:30;95833.38;;;15.23;54.22
48390;BME280;34643;47.964;7.982;2023-01-19T06:44:30;95839.63;;;15.20;54.45
48390;BME280;34643;47.964;7.982;2023-01-19T06:49:30;95842.47;;;15.17;54.81
48390;BME280;34643;47.964;7.982;2023-01-19T06:54:30;95842.75;;;15.14;55.02
48390;BME280;34643;47.964;7.982;2023-01-19T06:59:31;95836.56;;;15.15;54.95
48390;BME280;34643;47.964;7.982;2023-01-19T07:04:31;95837.78;;;15.11;55.22
48390;BME280;34643;47.964;7.982;2023-01-19T07:09:31;95845.81;;;15.08;55.48
48390;BME280;34643;47.964;7.982;2023-01-19T07:14:31;95834.59;;;15.07;55.55
48390;BME280;34643;47.964;7.982;2023-01-19T07:19:33;95831.31;;;15.05;55.51
48390;BME280;34643;47.964;7.982;2023-01-19T07:24:34;95837.56;;;15.02;55.58
48390;BME280;34643;47.964;7.982;2023-01-19T07:29:34;95834.25;;;15.00;55.57
48390;BME280;34643;47.964;7.982;2023-01-19T07:34:36;95837.09;;;14.97;55.75
48390;BME280;34643;47.964;7.982;2023-01-19T07:39:36;95834.50;;;14.97;55.93
48390;BME280;34643;47.964;7.982;2023-01-19T07:44:37;95839.00;;;14.95;55.74
48390;BME280;34643;47.964;7.982;2023-01-19T07:49:37;95846.19;;;14.92;56.08
48390;BME280;34643;47.964;7.982;2023-01-19T07:54:38;95835.94;;;14.90;55.98
48390;BME280;34643;47.964;7.982;2023-01-19T07:59:38;95848.44;;;14.85;56.27
48390;BME280;34643;47.964;7.982;2023-01-19T08:04:38;95851.03;;;14.85;56.32
48390;BME280;34643;47.964;7.982;2023-01-19T08:09:39;95856.50;;;14.82;56.28
48390;BME280;34643;47.964;7.982;2023-01-19T08:14:39;95859.44;;;14.77;56.37
48390;BME280;34643;47.964;7.982;2023-01-19T08:19:41;95863.03;;;14.76;56.57
48390;BME280;34643;47.964;7.982;2023-01-19T08:24:41;95861.34;;;14.75;56.44
48390;BME280;34643;47.964;7.982;2023-01-19T08:29:41;95861.47;;;14.74;56.60
48390;BME280;34643;47.964;7.982;2023-01-19T08:34:42;95868.44;;;14.73;56.24
48390;BME280;34643;47.964;7.982;2023-01-19T08:39:42;95861.94;;;14.79;56.39
48390;BME280;34643;47.964;7.982;2023-01-19T08:44:42;95872.91;;;14.82;56.12
48390;BME280;34643;47.964;7.982;2023-01-19T08:49:42;95875.28;;;14.86;56.17
48390;BME280;34643;47.964;7.982;2023-01-19T08:54:43;95885.78;;;14.84;56.17
48390;BME280;34643;47.964;7.982;2023-01-19T08:59:43;95883.31;;;14.82;56.19
48390;BME280;34643;47.964;7.982;2023-01-19T09:04:46;95893.69;;;14.82;56.13
48390;BME280;34643;47.964;7.982;2023-01-19T09:09:46;95903.28;;;14.82;56.29
48390;BME280;34643;47.964;7.982;2023-01-19T09:14:46;95909.41;;;14.81;56.26
48390;BME280;34643;47.964;7.982;2023-01-19T09:19:47;95903.28;;;14.82;56.38
48390;BME280;34643;47.964;7.982;2023-01-19T09:24:47;95898.06;;;14.82;56.31
48390;BME280;34643;47.964;7.982;2023-01-19T09:29:47;95895.38;;;14.83;56.44
48390;BME280;34643;47.964;7.982;2023-01-19T09:34:51;95893.81;;;14.81;56.54
48390;BME280;34643;47.964;7.982;2023-01-19T09:39:54;95890.41;;;14.80;56.69
48390;BME280;34643;47.964;7.982;2023-01-19T09:44:54;95888.84;;;14.78;56.39
48390;BME280;34643;47.964;7.982;2023-01-19T09:49:56;95885.44;;;14.77;56.74
48390;BME280;34643;47.964;7.982;2023-01-19T09:55:00;95885.44;;;14.77;56.57
48390;BME280;34643;47.964;7.982;2023-01-19T10:00:00;95882.13;;;14.75;56.92
48390;BME280;34643;47.964;7.982;2023-01-19T10:10:18;95886.63;;;14.73;56.94
48390;BME280;34643;47.964;7.982;2023-01-19T10:15:25;95893.72;;;14.71;56.90
48390;BME280;34643;47.964;7.982;2023-01-19T10:20:28;95893.59;;;14.73;56.71
48390;BME280;34643;47.964;7.982;2023-01-19T10:25:32;95892.75;;;14.72;56.77
48390;BME280;34643;47.964;7.982;2023-01-19T10:30:32;95889.00;;;14.76;56.57
48390;BME280;34643;47.964;7.982;2023-01-19T10:35:33;95894.78;;;14.80;56.49
48390;BME280;34643;47.964;7.982;2023-01-19T10:45:53;95897.22;;;14.81;56.61
48390;BME280;34643;47.964;7.982;2023-01-19T10:51:03;95893.09;;;14.79;56.47
48390;BME280;34643;47.964;7.982;2023-01-19T10:56:24;95889.00;;;14.76;56.65
48390;BME280;34643;47.964;7.982;2023-01-19T11:01:26;95884.63;;;14.77;56.89
48390;BME280;34643;47.964;7.982;2023-01-19T11:06:28;95880.47;;;14.74;56.84
48390;BME280;34643;47.964;7.982;2023-01-19T11:11:30;95884.97;;;14.72;56.77
48390;BME280;34643;47.964;7.982;2023-01-19T11:16:43;95880.03;;;14.69;56.96
48390;BME280;34643;47.964;7.982;2023-01-19T11:21:45;95879.19;;;14.69;57.08
48390;BME280;34643;47.964;7.982;2023-01-19T11:26:47;95870.47;;;14.70;56.89
48390;BME280;34643;47.964;7.982;2023-01-19T11:31:48;95879.41;;;14.66;56.90
48390;BME280;34643;47.964;7.982;2023-01-19T11:36:59;95869.03;;;14.66;56.94
48390;BME280;34643;47.964;7.982;2023-01-19T11:42:01;95882.00;;;14.66;57.08
48390;BME280;34643;47.964;7.982;2023-01-19T11:47:03;95869.97;;;14.64;57.08
48390;BME280;34643;47.964;7.982;2023-01-19T11:57:15;95856.63;;;14.80;56.91
48390;BME280;34643;47.964;7.982;2023-01-19T12:02:19;95858.84;;;14.96;56.49
48390;BME280;34643;47.964;7.982;2023-01-19T12:07:25;95846.31;;;15.01;56.68
48390;BME280;34643;47.964;7.982;2023-01-19T12:12:29;95844.41;;;15.04;56.83
48390;BME280;34643;47.964;7.982;2023-01-19T12:17:31;95845.56;;;15.11;57.05
48390;BME280;34643;47.964;7.982;2023-01-19T12:22:35;95834.66;;;15.28;56.86
48390;BME280;34643;47.964;7.982;2023-01-19T12:27:40;95837.50;;;15.25;56.93
48390;BME280;34643;47.964;7.982;2023-01-19T12:32:41;95841.19;;;15.23;56.86
48390;BME280;34643;47.964;7.982;2023-01-19T12:37:42;95842.56;;;15.27;56.99
48390;BME280;34643;47.964;7.982;2023-01-19T12:42:48;95844.94;;;15.30;57.19
48390;BME280;34643;47.964;7.982;2023-01-19T12:47:51;95838.75;;;15.31;57.11
48390;BME280;34643;47.964;7.982;2023-01-19T12:52:52;95846.69;;;15.29;57.31
48390;BME280;34643;47.964;7.982;2023-01-19T12:57:57;95838.88;;;15.29;57.30
48390;BME280;34643;47.964;7.982;2023-01-19T13:08:24;95836.41;;;15.28;57.53
48390;BME280;34643;47.964;7.982;2023-01-19T13:13:28;95847.25;;;15.33;57.35
48390;BME280;34643;47.964;7.982;2023-01-19T13:18:30;95845.75;;;15.30;57.50
48390;BME280;34643;47.964;7.982;2023-01-19T13:28:49;95843.03;;;15.32;57.52
48390;BME280;34643;47.964;7.982;2023-01-19T13:33:51;95844.53;;;15.34;57.45
48390;BME280;34643;47.964;7.982;2023-01-19T13:38:53;95846.66;;;15.40;57.28
48390;BME280;34643;47.964;7.982;2023-01-19T13:43:55;95846.66;;;15.40;57.41
48390;BME280;34643;47.964;7.982;2023-01-19T13:48:58;95842.53;;;15.38;57.46
48390;BME280;34643;47.964;7.982;2023-01-19T13:54:00;95838.59;;;15.44;57.30
48390;BME280;34643;47.964;7.982;2023-01-19T13:59:02;95844.75;;;15.43;57.47
48390;BME280;34643;47.964;7.982;2023-01-19T14:09:24;95847.59;;;15.39;57.54
48390;BME280;34643;47.964;7.982;2023-01-19T14:14:25;95838.22;;;15.48;57.43
48390;BME280;34643;47.964;7.982;2023-01-19T14:19:26;95843.56;;;15.47;57.29
48390;BME280;34643;47.964;7.982;2023-01-19T14:24:27;95849.31;;;15.50;57.11
48390;BME280;34643;47.964;7.982;2023-01-19T14:29:34;95843.09;;;15.42;57.56
48390;BME280;34643;47.964;7.982;2023-01-19T14:34:39;95843.66;;;15.45;57.33
48390;BME280;34643;47.964;7.982;2023-01-19T14:39:42;95841.34;;;15.63;57.20
48390;BME280;34643;47.964;7.982;2023-01-19T14:44:44;95834.69;;;15.70;57.46
48390;BME280;34643;47.964;7.982;2023-01-19T14:49:47;95841.22;;;15.76;57.83
48390;BME280;34643;47.964;7.982;2023-01-19T14:54:47;95839.47;;;15.86;57.87
48390;BME280;34643;47.964;7.982;2023-01-19T14:59:48;95839.34;;;15.88;57.99
48390;BME280;34643;47.964;7.982;2023-01-19T15:04:49;95847.22;;;15.98;58.23
48390;BME280;34643;47.964;7.982;2023-01-19T15:09:54;95835.78;;;16.10;59.36
48390;BME280;34643;47.964;7.982;2023-01-19T15:14:54;95839.09;;;16.12;59.91
48390;BME280;34643;47.964;7.982;2023-01-19T15:19:55;95838.53;;;16.08;60.14
48390;BME280;34643;47.964;7.982;2023-01-19T15:24:55;95835.13;;;16.18;60.72
48390;BME280;34643;47.964;7.982;2023-01-19T15:29:58;95832.13;;;16.53;60.13
48390;BME280;34643;47.964;7.982;2023-01-19T15:34:59;95839.94;;;16.43;60.33
48390;BME280;34643;47.964;7.982;2023-01-19T15:39:59;95835.91;;;16.39;59.98
48390;BME280;34643;47.964;7.982;2023-01-19T15:45:00;95836.78;;;16.49;60.08
48390;BME280;34643;47.964;7.982;2023-01-19T15:50:00;95839.75;;;16.35;60.17
48390;BME280;34643;47.964;7.982;2023-01-19T15:55:00;95835.78;;;16.10;60.56
48390;BME280;34643;47.964;7.982;2023-01-19T16:00:01;95838.22;;;16.32;60.00
48390;BME280;34643;47.964;7.982;2023-01-19T16:05:10;95836.59;;;16.72;59.66
48390;BME280;34643;47.964;7.982;2023-01-19T16:10:10;95833.81;;;16.54;60.03
48390;BME280;34643;47.964;7.982;2023-01-19T16:15:11;95833.50;;;16.57;59.93
48390;BME280;34643;47.964;7.982;2023-01-19T16:20:12;95836.03;;;16.07;60.32
48390;BME280;34643;47.964;7.982;2023-01-19T16:25:12;95840.44;;;15.85;59.97
48390;BME280;34643;47.964;7.982;2023-01-19T16:30:12;95833.41;;;15.76;59.66
48390;BME280;34643;47.964;7.982;2023-01-19T16:35:15;95834.09;;;15.67;59.56
48390;BME280;34643;47.964;7.982;2023-01-19T16:40:15;95835.91;;;15.66;58.90
48390;BME280;34643;47.964;7.982;2023-01-19T16:45:16;95836.00;;;15.65;58.76
48390;BME280;34643;47.964;7.982;2023-01-19T16:50:16;95835.19;;;15.64;58.63
48390;BME280;34643;47.964;7.982;2023-01-19T16:55:17;95833.13;;;15.58;58.61
48390;BME280;34643;47.964;7.982;2023-01-19T17:00:17;95830.06;;;15.53;58.42
48390;BME280;34643;47.964;7.982;2023-01-19T17:05:17;95828.84;;;15.57;58.40
48390;BME280;34643;47.964;7.982;2023-01-19T17:10:18;95829.22;;;15.52;58.52
48390;BME280;34643;47.964;7.982;2023-01-19T17:15:18;95833.16;;;15.47;58.63
48390;BME280;34643;47.964;7.982;2023-01-19T17:20:18;95834.47;;;15.41;58.63
48390;BME280;34643;47.964;7.982;2023-01-19T17:25:19;95832.97;;;15.38;58.66
48390;BME280;34643;47.964;7.982;2023-01-19T17:30:19;95831.53;;;15.34;58.83
48390;BME280;34643;47.964;7.982;2023-01-19T17:35:19;95831.78;;;15.31;58.82
48390;BME280;34643;47.964;7.982;2023-01-19T17:40:19;95826.84;;;15.28;58.72
48390;BME280;34643;47.964;7.982;2023-01-19T17:45:20;95834.19;;;15.23;58.68
48390;BME280;34643;47.964;7.982;2023-01-19T17:50:20;95834.44;;;15.20;58.85
48390;BME280;34643;47.964;7.982;2023-01-19T17:55:21;95829.22;;;15.20;58.76
48390;BME280;34643;47.964;7.982;2023-01-19T18:00:21;95820.53;;;15.42;58.24
48390;BME280;34643;47.964;7.982;2023-01-19T18:05:36;95830.19;;;15.51;58.75
48390;BME280;34643;47.964;7.982;2023-01-19T18:10:37;95828.16;;;15.55;58.57
48390;BME280;34643;47.964;7.982;2023-01-19T18:15:37;95824.13;;;15.83;57.99
48390;BME280;34643;47.964;7.982;2023-01-19T18:20:37;95823.94;;;15.96;57.85
48390;BME280;34643;47.964;7.982;2023-01-19T18:25:39;95824.38;;;16.01;58.93
48390;BME280;34643;47.964;7.982;2023-01-19T18:30:39;95821.56;;;15.93;59.93
48390;BME280;34643;47.964;7.982;2023-01-19T18:35:39;95822.38;;;15.93;60.21
48390;BME280;34643;47.964;7.982;2023-01-19T18:40:39;95814.34;;;15.96;60.51
48390;BME280;34643;47.964;7.982;2023-01-19T18:45:40;95821.91;;;16.00;60.90
48390;BME280;34643;47.964;7.982;2023-01-19T18:50:41;95816.69;;;16.00;61.14
48390;BME280;34643;47.964;7.982;2023-01-19T18:55:53;95817.38;;;16.02;61.38
48390;BME280;34643;47.964;7.982;2023-01-19T19:00:54;95815.09;;;16.08;61.40
48390;BME280;34643;47.964;7.982;2023-01-19T19:05:55;95811.09;;;16.04;61.11
48390;BME280;34643;47.964;7.982;2023-01-19T19:10:55;95817.38;;;16.02;61.39
48390;BME280;34643;47.964;7.982;2023-01-19T19:16:00;95807.09;;;16.00;61.14
48390;BME280;34643;47.964;7.982;2023-01-19T19:21:04;95813.16;;;16.01;61.49
48390;BME280;34643;47.964;7.982;2023-01-19T19:26:06;95806.16;;;16.01;61.47
48390;BME280;34643;47.964;7.982;2023-01-19T19:36:07;95813.72;;;16.04;61.48
48390;BME280;34643;47.964;7.982;2023-01-19T19:41:08;95815.59;;;16.02;61.40
48390;BME280;34643;47.964;7.982;2023-01-19T19:46:11;95822.47;;;16.03;61.41
48390;BME280;34643;47.964;7.982;2023-01-19T19:51:12;95819.03;;;16.03;61.15
48390;BME280;34643;47.964;7.982;2023-01-19T19:56:13;95816.56;;;16.01;61.17
48390;BME280;34643;47.964;7.982;2023-01-19T20:01:14;95815.03;;;15.99;61.42
48390;BME280;34643;47.964;7.982;2023-01-19T20:06:16;95819.66;;;15.95;61.44
48390;BME280;34643;47.964;7.982;2023-01-19T20:11:20;95820.88;;;15.91;61.48
48390;BME280;34643;47.964;7.982;2023-01-19T20:16:21;95824.56;;;15.88;61.29
48390;BME280;34643;47.964;7.982;2023-01-19T20:21:29;95825.66;;;15.86;61.15
48390;BME280;34643;47.964;7.982;2023-01-19T20:26:31;95826.09;;;15.91;60.75
48390;BME280;34643;47.964;7.982;2023-01-19T20:31:32;95833.91;;;15.91;60.77
48390;BME280;34643;47.964;7.982;2023-01-19T20:36:34;95828.44;;;15.94;61.05
48390;BME280;34643;47.964;7.982;2023-01-19T20:41:35;95841.59;;;15.92;61.05
48390;BME280;34643;47.964;7.982;2023-01-19T20:46:42;95844.88;;;15.94;60.80
48390;BME280;34643;47.964;7.982;2023-01-19T20:51:42;95839.34;;;15.88;60.98
48390;BME280;34643;47.964;7.982;2023-01-19T20:56:45;95841.25;;;15.86;60.97
48390;BME280;34643;47.964;7.982;2023-01-19T21:01:45;95843.75;;;15.87;61.11
48390;BME280;34643;47.964;7.982;2023-01-19T21:06:45;95852.25;;;15.89;60.97
48390;BME280;34643;47.964;7.982;2023-01-19T21:11:45;95847.84;;;15.90;60.94
48390;BME280;34643;47.964;7.982;2023-01-19T21:16:46;95854.47;;;15.94;60.67
48390;BME280;34643;47.964;7.982;2023-01-19T21:21:46;95861.31;;;15.95;60.76
48390;BME280;34643;47.964;7.982;2023-01-19T21:26:46;95861.31;;;15.95;60.67
48390;BME280;34643;47.964;7.982;2023-01-19T21:31:47;95868.19;;;15.96;60.59
48390;BME280;34643;47.964;7.982;2023-01-19T21:36:47;95867.59;;;15.92;60.66
48390;BME280;34643;47.964;7.982;2023-01-19T21:41:47;95874.28;;;15.85;60.23
48390;BME280;34643;47.964;7.982;2023-01-19T21:46:48;95881.09;;;15.86;60.05
48390;BME280;34643;47.964;7.982;2023-01-19T21:51:48;95880.28;;;15.86;59.56
48390;BME280;34643;47.964;7.982;2023-01-19T21:56:51;95882.44;;;15.81;59.37
48390;BME280;34643;47.964;7.982;2023-01-19T22:01:52;95886.94;;;15.78;59.32
48390;BME280;34643;47.964;7.982;2023-01-19T22:06:53;95895.72;;;15.77;58.78
48390;BME280;34643;47.964;7.982;2023-01-19T22:11:53;95896.66;;;15.76;58.84
48390;BME280;34643;47.964;7.982;2023-01-19T22:16:53;95895.44;;;15.81;58.91
48390;BME280;34643;47.964;7.982;2023-01-19T22:21:53;95911.91;;;15.81;58.77
48390;BME280;34643;47.964;7.982;2023-01-19T22:26:54;95904.22;;;15.80;58.88
48390;BME280;34643;47.964;7.982;2023-01-19T22:31:54;95917.94;;;15.82;59.19
48390;BME280;34643;47.964;7.982;2023-01-19T22:36:54;95919.00;;;15.79;59.32
48390;BME280;34643;47.964;7.982;2023-01-19T22:41:55;95919.00;;;15.79;59.46
48390;BME280;34643;47.964;7.982;2023-01-19T22:46:55;95919.84;;;15.80;59.54
48390;BME280;34643;47.964;7.982;2023-01-19T22:51:55;95922.06;;;15.73;59.79
48390;BME280;34643;47.964;7.982;2023-01-19T22:56:56;95929.19;;;15.71;60.12
48390;BME280;34643;47.964;7.982;2023-01-19T23:01:57;95934.25;;;15.72;59.67
48390;BME280;34643;47.964;7.982;2023-01-19T23:06:57;95944.91;;;15.69;60.12
48390;BME280;34643;47.964;7.982;2023-01-19T23:11:57;95935.44;;;15.68;60.00
48390;BME280;34643;47.964;7.982;2023-01-19T23:16:58;95946.44;;;15.72;59.89
48390;BME280;34643;47.964;7.982;2023-01-19T23:21:58;95952.59;;;15.71;59.58
48390;BME280;34643;47.964;7.982;2023-01-19T23:26:58;95947.88;;;15.65;60.10
48390;BME280;34643;47.964;7.982;2023-01-19T23:32:00;95946.81;;;15.67;59.86
48390;BME280;34643;47.964;7.982;2023-01-19T23:37:02;95944.91;;;15.69;59.91
48390;BME280;34643;47.964;7.982;2023-01-19T23:42:02;95955.44;;;15.68;59.86
48390;BME280;34643;47.964;7.982;2023-01-19T23:47:04;95954.22;;;15.72;59.46
48390;BME280;34643;47.964;7.982;2023-01-19T23:52:04;95954.03;;;15.75;59.27
48390;BME280;34643;47.964;7.982;2023-01-19T23:57:04;95955.09;;;15.72;59.33
